Hitchcock, Oklahoma
Current Conditions -  °F | °C
As of 2:55 AM on Friday 31 Oct 2014 (Local Time) from KJWG Reporting Station
Clear Clear  
Wind Chill: 52°   Ceiling: Unl
Heat Index: 52°   Visibility: 10mi
Dew Point: 38°   Wind: 13mph
Humidity: 59%   Direction: 350°N
Pressure: 30.33"   Gusts: NA
Location:  35.97°N, 98.35°W
Report Text: KJWG 310755Z AUTO 35011KT 10SM CLR 11/04 A3033 RMK AO2 T01120035
Loading
Personal Weather Stations






























Interactive Weather Map
Tropical Storm Tracking
New forecast layout! Learn more

10-Day Weather Forecast

Advertisements
Track Severe Weather on mobile